createdAt,value
2019-03-26T00:00:37.101Z,17.10
2019-03-26T00:03:05.529Z,16.90
2019-03-26T00:05:33.985Z,22.23
2019-03-26T00:08:02.411Z,14.87
2019-03-26T00:10:30.863Z,16.30
2019-03-26T00:12:59.329Z,19.87
2019-03-26T00:15:27.825Z,18.27
2019-03-26T00:17:56.277Z,24.00
2019-03-26T00:20:24.713Z,23.00
2019-03-26T00:22:53.161Z,21.80
2019-03-26T00:25:21.623Z,29.40
2019-03-26T00:27:50.062Z,15.30
2019-03-26T00:30:18.565Z,17.60
2019-03-26T00:32:47.095Z,19.10
2019-03-26T00:35:16.369Z,16.27
2019-03-26T00:37:44.794Z,13.53
2019-03-26T00:54:52.915Z,13.77
2019-03-26T00:57:21.364Z,27.13
2019-03-26T00:59:49.872Z,28.30
2019-03-26T01:02:19.428Z,21.03
2019-03-26T01:04:47.875Z,15.30
2019-03-26T01:07:17.818Z,21.43
2019-03-26T01:09:46.286Z,21.83
2019-03-26T01:12:14.718Z,14.10
2019-03-26T01:14:43.180Z,24.73
2019-03-26T01:17:11.593Z,17.07
2019-03-26T01:19:40.074Z,17.40
2019-03-26T01:22:08.508Z,21.40
2019-03-26T01:24:36.938Z,12.67
2019-03-26T01:27:05.415Z,13.80
2019-03-26T01:29:33.881Z,16.50
2019-03-26T01:32:02.410Z,23.87
2019-03-26T01:34:30.857Z,29.20
2019-03-26T01:36:59.309Z,25.37
2019-03-26T01:39:27.745Z,23.37
2019-03-26T01:41:56.201Z,23.57
2019-03-26T01:44:24.715Z,22.73
2019-03-26T01:46:53.177Z,49.60
2019-03-26T01:49:21.909Z,21.93
2019-03-26T01:51:50.360Z,24.80
2019-03-26T01:54:18.809Z,32.80
2019-03-26T01:56:47.239Z,24.27
2019-03-26T01:59:16.832Z,16.30
2019-03-26T02:01:45.345Z,28.33
2019-03-26T02:04:14.002Z,15.53
2019-03-26T02:06:42.528Z,26.40
2019-03-26T02:09:10.949Z,22.30
2019-03-26T02:11:39.541Z,28.33
2019-03-26T02:14:07.970Z,40.80
2019-03-26T02:16:36.413Z,25.03
2019-03-26T02:19:04.831Z,31.03
2019-03-26T02:21:33.273Z,35.47
2019-03-26T02:24:01.793Z,35.07
2019-03-26T02:26:30.241Z,32.90
2019-03-26T02:28:58.674Z,27.50
2019-03-26T02:31:27.136Z,18.07
2019-03-26T02:33:55.578Z,22.83
2019-03-26T02:36:24.010Z,31.27
2019-03-26T02:38:52.459Z,27.33
2019-03-26T02:41:20.887Z,35.70
2019-03-26T02:43:49.328Z,26.57
2019-03-26T02:46:17.759Z,21.97
2019-03-26T02:48:46.207Z,40.00
2019-03-26T02:51:14.634Z,24.37
2019-03-26T02:53:43.064Z,17.00
2019-03-26T02:56:11.494Z,31.03
2019-03-26T02:58:39.933Z,26.73
2019-03-26T03:01:08.354Z,21.63
2019-03-26T03:03:36.942Z,36.47
2019-03-26T03:06:05.425Z,37.13
2019-03-26T03:08:33.878Z,31.23
2019-03-26T03:11:02.304Z,27.50
2019-03-26T03:13:30.904Z,34.70
2019-03-26T03:15:59.334Z,31.57
2019-03-26T03:18:27.785Z,20.60
2019-03-26T03:20:56.276Z,25.40
2019-03-26T03:23:24.774Z,23.90
2019-03-26T03:25:53.258Z,23.33
2019-03-26T03:28:21.684Z,25.47
2019-03-26T03:30:50.152Z,23.00
2019-03-26T03:33:18.627Z,31.77
2019-03-26T03:35:52.582Z,20.27
2019-03-26T03:38:17.293Z,37.07
2019-03-26T03:40:45.726Z,31.23
2019-03-26T03:43:14.232Z,50.30
2019-03-26T03:45:42.661Z,25.63
2019-03-26T03:48:11.421Z,29.73
2019-03-26T03:50:40.121Z,20.30
2019-03-26T03:53:09.652Z,13.73
2019-03-26T03:55:38.734Z,27.37
2019-03-26T03:58:07.162Z,23.73
2019-03-26T04:00:37.704Z,34.27
2019-03-26T04:03:07.472Z,25.20
2019-03-26T04:05:36.578Z,22.67
2019-03-26T04:08:05.341Z,30.87
2019-03-26T04:10:33.799Z,18.77
2019-03-26T04:13:02.213Z,21.07
2019-03-26T04:15:34.505Z,30.97
2019-03-26T04:18:00.786Z,27.37
2019-03-26T04:20:29.246Z,23.57
2019-03-26T04:22:57.718Z,16.70
2019-03-26T04:25:26.190Z,18.23
2019-03-26T04:27:54.630Z,19.57
2019-03-26T04:30:30.440Z,23.10
2019-03-26T04:32:58.947Z,17.37
2019-03-26T04:35:27.381Z,29.33
2019-03-26T04:37:55.862Z,26.93
2019-03-26T04:40:24.392Z,27.17
2019-03-26T04:42:52.833Z,30.93
2019-03-26T04:45:21.283Z,27.63
2019-03-26T04:47:49.771Z,20.90
2019-03-26T04:50:18.386Z,28.20
2019-03-26T04:52:46.810Z,28.27
2019-03-26T04:55:15.333Z,33.13
2019-03-26T04:57:43.751Z,24.43
2019-03-26T05:00:12.512Z,43.10
2019-03-26T05:02:40.958Z,24.40
2019-03-26T05:05:12.322Z,19.37
2019-03-26T05:07:41.029Z,27.23
2019-03-26T05:10:09.738Z,23.40
2019-03-26T05:12:38.196Z,31.87
2019-03-26T05:15:26.029Z,25.63
2019-03-26T05:17:56.607Z,11.30
2019-03-26T05:20:24.629Z,24.83
2019-03-26T05:22:53.052Z,29.77
2019-03-26T05:25:21.489Z,27.57
2019-03-26T05:27:49.920Z,17.80
2019-03-26T05:30:18.626Z,23.30
2019-03-26T05:32:47.071Z,26.07
2019-03-26T05:35:15.673Z,36.90
2019-03-26T05:37:44.113Z,28.00
2019-03-26T05:40:13.293Z,24.60
2019-03-26T05:42:41.750Z,19.47
2019-03-26T05:45:10.593Z,9.70
2019-03-26T05:47:39.092Z,21.40
2019-03-26T05:50:09.542Z,18.00
2019-03-26T05:52:38.343Z,15.83
2019-03-26T05:55:08.404Z,11.33
2019-03-26T05:57:37.609Z,23.40
2019-03-26T06:00:14.024Z,26.53
2019-03-26T06:02:44.483Z,18.73
2019-03-26T06:05:13.064Z,11.93
2019-03-26T06:07:41.497Z,14.17
2019-03-26T06:10:10.673Z,17.83
2019-03-26T06:12:39.096Z,12.90
2019-03-26T06:15:09.259Z,18.23
2019-03-26T06:17:37.728Z,20.43
2019-03-26T06:20:07.234Z,15.80
2019-03-26T06:22:36.549Z,12.87
2019-03-26T06:25:07.114Z,21.40
2019-03-26T06:27:35.705Z,30.37
2019-03-26T06:30:06.734Z,10.97
2019-03-26T06:32:35.167Z,12.60
2019-03-26T06:35:05.897Z,18.60
2019-03-26T06:37:34.521Z,10.13
2019-03-26T06:40:03.234Z,15.27
2019-03-26T06:42:31.686Z,20.63
2019-03-26T06:45:00.326Z,21.23
2019-03-26T06:47:28.944Z,15.80
2019-03-26T06:49:57.497Z,20.90
2019-03-26T06:52:25.929Z,13.63
2019-03-26T06:54:54.374Z,16.47
2019-03-26T06:57:35.104Z,13.60
2019-03-26T06:59:53.931Z,29.03
2019-03-26T07:02:22.373Z,18.63
2019-03-26T07:04:50.802Z,16.90
2019-03-26T07:07:30.818Z,9.33
2019-03-26T07:09:49.412Z,22.60
2019-03-26T07:12:17.846Z,15.90
2019-03-26T07:15:09.690Z,22.60
2019-03-26T07:17:38.677Z,19.73
2019-03-26T07:20:08.586Z,11.83
2019-03-26T07:22:37.004Z,13.40
2019-03-26T07:25:08.145Z,19.60
2019-03-26T07:27:37.124Z,19.73
2019-03-26T07:30:07.987Z,23.57
2019-03-26T07:32:36.438Z,18.10
2019-03-26T07:35:06.814Z,23.50
2019-03-26T07:37:45.107Z,20.00
2019-03-26T07:40:07.345Z,16.03
2019-03-26T07:42:35.765Z,7.57
2019-03-26T07:45:06.232Z,18.93
2019-03-26T07:47:34.736Z,16.83
2019-03-26T07:50:03.845Z,19.47
2019-03-26T07:52:32.272Z,13.63
2019-03-26T07:55:00.712Z,12.40
2019-03-26T07:57:29.142Z,34.60
2019-03-26T07:59:59.144Z,20.93
2019-03-26T08:02:27.615Z,12.47
2019-03-26T08:04:56.110Z,24.33
2019-03-26T08:07:24.670Z,21.13
2019-03-26T08:09:53.102Z,18.37
2019-03-26T08:12:21.533Z,14.77
2019-03-26T08:14:49.966Z,16.70
2019-03-26T08:17:18.516Z,11.03
2019-03-26T08:19:46.990Z,16.73
2019-03-26T08:22:15.446Z,20.00
2019-03-26T08:24:43.888Z,10.13
2019-03-26T08:27:12.677Z,19.93
2019-03-26T08:29:41.098Z,21.10
2019-03-26T08:32:09.537Z,16.67
2019-03-26T08:34:38.157Z,19.87
2019-03-26T08:37:06.646Z,23.53
2019-03-26T08:39:35.128Z,19.93
2019-03-26T08:42:03.601Z,13.30
2019-03-26T08:44:32.047Z,13.17
2019-03-26T08:47:00.465Z,14.90
2019-03-26T08:49:30.896Z,15.30
2019-03-26T08:51:59.049Z,15.17
2019-03-26T08:54:27.487Z,12.00
2019-03-26T08:56:56.076Z,20.53
2019-03-26T08:59:24.501Z,18.13
2019-03-26T09:01:52.930Z,18.07
2019-03-26T09:04:21.373Z,5.40
2019-03-26T09:06:49.784Z,8.57
2019-03-26T09:09:18.232Z,21.53
2019-03-26T09:11:46.679Z,6.73
2019-03-26T09:14:15.093Z,7.93
2019-03-26T09:16:43.577Z,15.37
2019-03-26T09:19:12.006Z,8.00
2019-03-26T09:21:40.446Z,7.20
2019-03-26T09:24:08.882Z,5.40
2019-03-26T09:26:37.308Z,17.30
2019-03-26T09:29:05.739Z,12.13
2019-03-26T09:31:34.182Z,10.63
2019-03-26T09:34:02.604Z,10.60
2019-03-26T09:36:31.052Z,7.03
2019-03-26T09:38:59.482Z,12.50
2019-03-26T09:41:27.922Z,8.43
2019-03-26T09:43:56.358Z,18.10
2019-03-26T09:46:25.067Z,9.87
2019-03-26T09:48:55.575Z,7.63
2019-03-26T09:51:24.017Z,11.83
2019-03-26T09:53:52.505Z,9.33
2019-03-26T09:56:28.498Z,14.20
2019-03-26T09:58:51.095Z,8.23
2019-03-26T10:01:19.539Z,8.03
2019-03-26T10:03:47.953Z,10.70
2019-03-26T10:06:23.441Z,12.33
2019-03-26T10:08:52.418Z,10.77
2019-03-26T10:11:16.887Z,5.90
2019-03-26T10:13:45.319Z,12.87
2019-03-26T10:16:13.764Z,6.67
2019-03-26T10:18:42.197Z,9.70
2019-03-26T10:21:10.621Z,10.63
2019-03-26T10:23:39.068Z,14.43
2019-03-26T10:26:07.492Z,11.50
2019-03-26T10:28:36.086Z,19.20
2019-03-26T10:31:04.514Z,9.80
2019-03-26T10:33:32.967Z,13.00
2019-03-26T10:36:01.380Z,10.53
2019-03-26T10:38:29.841Z,16.17
2019-03-26T10:40:58.268Z,16.63
2019-03-26T10:43:26.788Z,9.87
2019-03-26T10:45:55.270Z,8.60
2019-03-26T10:48:23.706Z,7.20
2019-03-26T10:50:52.129Z,22.40
2019-03-26T10:53:20.642Z,5.87
2019-03-26T10:55:49.065Z,17.40
2019-03-26T10:58:17.496Z,12.93
2019-03-26T11:00:45.929Z,17.13
2019-03-26T11:03:14.369Z,16.23
2019-03-26T11:05:42.805Z,9.20
2019-03-26T11:08:11.237Z,10.67
2019-03-26T11:10:39.674Z,12.83
2019-03-26T11:13:08.125Z,5.30
2019-03-26T11:15:36.565Z,14.50
2019-03-26T11:18:05.282Z,10.10
2019-03-26T11:20:33.720Z,6.10
2019-03-26T11:23:14.452Z,9.00
2019-03-26T11:25:42.873Z,9.20
2019-03-26T11:28:11.305Z,5.60
2019-03-26T11:30:40.009Z,4.80
2019-03-26T11:33:08.447Z,9.83
2019-03-26T11:35:36.998Z,7.80
2019-03-26T11:38:05.562Z,9.80
2019-03-26T11:40:33.995Z,5.43
2019-03-26T11:43:02.429Z,8.43
2019-03-26T11:45:30.863Z,5.40
2019-03-26T11:47:59.359Z,9.97
2019-03-26T11:50:27.772Z,4.13
2019-03-26T11:52:56.232Z,8.17
2019-03-26T11:55:24.653Z,6.23
2019-03-26T11:57:53.105Z,13.13
2019-03-26T12:00:29.831Z,5.73
2019-03-26T12:02:58.262Z,19.13
2019-03-26T12:05:26.753Z,8.17
2019-03-26T12:07:55.218Z,13.83
2019-03-26T12:10:23.661Z,12.60
2019-03-26T12:12:52.081Z,9.37
2019-03-26T12:15:20.514Z,23.43
2019-03-26T12:17:48.976Z,15.20
2019-03-26T12:20:17.406Z,14.90
2019-03-26T12:22:45.851Z,6.27
2019-03-26T12:25:14.668Z,8.27
2019-03-26T12:27:43.113Z,7.37
2019-03-26T12:30:12.386Z,8.07
2019-03-26T12:32:41.375Z,3.87
2019-03-26T12:35:11.921Z,3.27
2019-03-26T12:37:40.365Z,2.20
2019-03-26T12:40:09.377Z,2.77
2019-03-26T12:42:39.358Z,4.30
2019-03-26T12:45:08.230Z,2.40
2019-03-26T12:47:36.739Z,8.33
2019-03-26T12:50:07.390Z,7.50
2019-03-26T12:52:35.842Z,6.23
2019-03-26T12:55:05.805Z,9.70
2019-03-26T12:57:34.226Z,4.63
2019-03-26T13:00:03.053Z,3.23
2019-03-26T13:02:31.481Z,4.30
2019-03-26T13:04:59.928Z,9.47
2019-03-26T13:07:28.362Z,4.10
2019-03-26T13:09:56.976Z,1.90
2019-03-26T13:12:25.398Z,5.83
2019-03-26T13:14:53.833Z,4.43
2019-03-26T13:17:22.436Z,8.13
2019-03-26T13:19:50.857Z,2.80
2019-03-26T13:22:19.293Z,2.83
2019-03-26T13:24:47.748Z,3.37
2019-03-26T13:27:16.183Z,4.63
2019-03-26T13:29:44.620Z,9.83
2019-03-26T13:32:13.273Z,5.67
2019-03-26T13:34:41.872Z,14.00
2019-03-26T13:37:10.294Z,3.83
2019-03-26T13:39:38.766Z,7.20
2019-03-26T13:42:07.182Z,4.93
2019-03-26T13:44:35.614Z,3.40
2019-03-26T13:47:04.110Z,5.30
2019-03-26T13:49:32.564Z,7.87
2019-03-26T13:52:01.138Z,3.50
2019-03-26T13:54:29.578Z,6.37
2019-03-26T13:56:58.201Z,15.00
2019-03-26T13:59:26.625Z,9.80
2019-03-26T14:01:55.057Z,6.43
2019-03-26T14:04:23.472Z,9.00
2019-03-26T14:06:52.732Z,4.63
2019-03-26T14:09:21.324Z,10.67
2019-03-26T14:11:49.758Z,9.63
2019-03-26T14:14:18.229Z,9.37
2019-03-26T14:16:46.666Z,7.53
2019-03-26T14:19:15.082Z,6.87
2019-03-26T14:21:43.593Z,4.90
2019-03-26T14:24:13.460Z,13.77
2019-03-26T14:26:42.236Z,8.00
2019-03-26T14:29:10.648Z,7.93
2019-03-26T14:31:39.088Z,14.17
2019-03-26T14:34:07.884Z,4.27
2019-03-26T14:36:36.327Z,7.60
2019-03-26T14:39:07.825Z,10.90
2019-03-26T14:41:36.261Z,4.60
2019-03-26T14:44:04.854Z,9.43
2019-03-26T14:46:33.357Z,15.70
2019-03-26T14:49:01.779Z,11.30
2019-03-26T14:51:30.390Z,11.37
2019-03-26T14:53:58.826Z,8.00
2019-03-26T14:56:27.432Z,5.67
2019-03-26T14:58:55.859Z,7.60
2019-03-26T15:01:24.290Z,8.23
2019-03-26T15:03:52.705Z,5.40
2019-03-26T15:06:21.128Z,22.53
2019-03-26T15:08:49.554Z,7.63
2019-03-26T15:11:17.987Z,4.90
2019-03-26T15:13:49.315Z,7.00
2019-03-26T15:16:16.572Z,5.33
2019-03-26T15:18:45.006Z,8.70
2019-03-26T15:21:13.456Z,12.93
2019-03-26T15:23:41.942Z,14.40
2019-03-26T15:26:10.462Z,10.07
2019-03-26T15:28:38.885Z,3.67
2019-03-26T15:31:07.366Z,8.57
2019-03-26T15:33:35.788Z,5.60
2019-03-26T15:36:04.227Z,11.87
2019-03-26T15:38:32.649Z,3.07
2019-03-26T15:41:01.072Z,3.93
2019-03-26T15:43:29.531Z,8.20
2019-03-26T15:45:57.949Z,5.57
2019-03-26T15:48:26.381Z,3.13
2019-03-26T15:50:54.797Z,3.90
2019-03-26T15:53:23.229Z,4.97
2019-03-26T15:55:51.650Z,0.70
2019-03-26T15:58:20.094Z,1.77
2019-03-26T16:00:48.601Z,1.93
2019-03-26T16:03:17.084Z,3.23
2019-03-26T16:05:45.512Z,3.53
2019-03-26T16:08:13.981Z,1.60
2019-03-26T16:10:42.399Z,4.83
2019-03-26T16:13:10.843Z,0.70
2019-03-26T16:15:44.761Z,1.23
2019-03-26T16:18:10.825Z,6.70
2019-03-26T16:20:39.254Z,0.60
2019-03-26T16:23:07.698Z,3.17
2019-03-26T16:25:36.388Z,1.27
2019-03-26T16:28:04.823Z,0.70
2019-03-26T16:30:34.620Z,2.70
2019-03-26T16:33:03.190Z,1.27
2019-03-26T16:35:31.640Z,1.80
2019-03-26T16:38:00.099Z,3.70
2019-03-26T16:40:28.513Z,4.57
2019-03-26T16:42:57.025Z,8.77
2019-03-26T16:45:25.556Z,1.60
2019-03-26T16:47:54.057Z,2.90
2019-03-26T16:50:22.479Z,1.90
2019-03-26T16:52:50.937Z,3.50
2019-03-26T16:55:19.413Z,1.90
2019-03-26T16:57:47.869Z,4.20
2019-03-26T17:00:19.386Z,7.60
2019-03-26T17:02:47.814Z,1.40
2019-03-26T17:05:19.325Z,3.47
2019-03-26T17:07:47.746Z,1.13
2019-03-26T17:10:16.345Z,1.30
2019-03-26T17:12:44.764Z,2.20
2019-03-26T17:15:13.634Z,1.60
2019-03-26T17:17:42.049Z,8.63
2019-03-26T17:20:10.755Z,5.10
2019-03-26T17:22:40.127Z,2.27
2019-03-26T17:25:09.768Z,2.07
2019-03-26T17:27:38.201Z,2.90
2019-03-26T17:30:07.038Z,3.93
2019-03-26T17:32:37.633Z,2.50
2019-03-26T17:35:07.037Z,2.50
2019-03-26T17:37:35.531Z,3.30
2019-03-26T17:40:05.708Z,2.87
2019-03-26T17:42:34.148Z,9.07
2019-03-26T17:45:02.775Z,7.43
2019-03-26T17:47:31.291Z,3.57
2019-03-26T17:49:59.740Z,3.57
2019-03-26T17:52:28.207Z,2.70
2019-03-26T17:54:56.742Z,4.10
2019-03-26T17:57:25.294Z,2.20
2019-03-26T17:59:53.889Z,5.33
2019-03-26T18:02:22.349Z,5.17
2019-03-26T18:04:52.998Z,2.63
2019-03-26T18:07:21.495Z,3.27
2019-03-26T18:09:53.176Z,2.80
2019-03-26T18:12:30.898Z,3.73
2019-03-26T18:14:53.443Z,3.40
2019-03-26T18:17:22.165Z,3.63
2019-03-26T18:19:50.693Z,3.43
2019-03-26T18:22:19.188Z,5.60
2019-03-26T18:24:47.690Z,3.07
2019-03-26T18:27:16.233Z,5.23
2019-03-26T18:29:45.535Z,6.50
2019-03-26T18:32:13.960Z,10.77
2019-03-26T18:34:42.380Z,9.23
2019-03-26T18:37:10.839Z,4.73
2019-03-26T18:39:39.272Z,8.70
2019-03-26T18:42:07.699Z,7.60
2019-03-26T18:44:36.138Z,16.03
2019-03-26T18:47:04.559Z,6.27
2019-03-26T18:49:32.998Z,6.50
2019-03-26T18:52:01.429Z,10.90
2019-03-26T18:54:29.869Z,5.73
2019-03-26T18:56:58.344Z,9.97
2019-03-26T18:59:26.848Z,10.83
2019-03-26T19:01:55.303Z,10.13
2019-03-26T19:04:23.734Z,7.50
2019-03-26T19:06:52.161Z,7.80
2019-03-26T19:09:20.592Z,7.23
2019-03-26T19:11:49.074Z,10.60
2019-03-26T19:14:17.549Z,13.90
2019-03-26T19:16:46.009Z,10.33
2019-03-26T19:19:14.473Z,20.07
2019-03-26T19:21:43.000Z,17.27
2019-03-26T19:24:11.413Z,5.30
2019-03-26T19:26:39.926Z,20.83
2019-03-26T19:29:08.386Z,27.47
2019-03-26T19:31:36.851Z,20.80
2019-03-26T19:34:05.283Z,22.53
2019-03-26T19:36:33.776Z,30.57
2019-03-26T19:39:02.238Z,20.30
2019-03-26T19:41:30.777Z,30.63
2019-03-26T19:43:59.202Z,18.83
2019-03-26T19:46:27.691Z,22.50
2019-03-26T19:48:56.130Z,25.67
2019-03-26T19:51:24.572Z,31.00
2019-03-26T19:53:53.031Z,29.07
2019-03-26T19:56:21.571Z,24.80
2019-03-26T19:59:09.386Z,22.87
2019-03-26T20:01:37.890Z,20.87
2019-03-26T20:04:06.397Z,26.83
2019-03-26T20:06:34.868Z,20.87
2019-03-26T20:09:04.515Z,22.17
2019-03-26T20:11:32.961Z,26.83
2019-03-26T20:14:01.419Z,20.37
2019-03-26T20:16:41.331Z,28.60
2019-03-26T20:19:00.154Z,15.50
2019-03-26T20:21:29.735Z,29.97
2019-03-26T20:23:58.180Z,32.87
2019-03-26T20:26:26.642Z,30.00
2019-03-26T20:28:55.069Z,20.63
2019-03-26T20:31:25.044Z,20.60
2019-03-26T20:33:53.474Z,18.10
2019-03-26T20:36:21.993Z,33.03
2019-03-26T20:38:54.108Z,31.30
2019-03-26T20:41:22.528Z,20.43
2019-03-26T20:43:50.973Z,27.43
2019-03-26T20:46:19.473Z,13.50
2019-03-26T20:48:48.099Z,25.03
2019-03-26T20:51:16.994Z,24.73
2019-03-26T20:53:46.752Z,31.53
2019-03-26T20:56:15.187Z,25.17
2019-03-26T20:58:44.329Z,26.73
2019-03-26T21:01:12.748Z,15.87
2019-03-26T21:03:41.189Z,19.93
2019-03-26T21:06:09.639Z,29.73
2019-03-26T21:08:38.067Z,26.60
2019-03-26T21:11:06.515Z,29.83
2019-03-26T21:13:35.045Z,28.50
2019-03-26T21:16:03.495Z,20.77
2019-03-26T21:18:32.032Z,22.93
2019-03-26T21:21:00.483Z,37.10
2019-03-26T21:23:29.082Z,33.97
2019-03-26T21:25:57.569Z,32.70
2019-03-26T21:28:26.010Z,24.17
2019-03-26T21:30:54.435Z,38.47
2019-03-26T21:33:22.876Z,51.20
2019-03-26T21:35:52.709Z,35.07
2019-03-26T21:38:21.167Z,30.73
2019-03-26T21:40:49.601Z,19.10
2019-03-26T21:43:18.072Z,25.97
2019-03-26T21:45:46.504Z,31.53
2019-03-26T21:48:14.988Z,29.07
2019-03-26T21:50:44.552Z,23.17
2019-03-26T21:53:13.029Z,24.40
2019-03-26T21:55:41.513Z,25.63
2019-03-26T21:58:09.949Z,20.63
2019-03-26T22:00:38.573Z,23.17
2019-03-26T22:03:07.554Z,25.47
2019-03-26T22:05:36.196Z,37.20
2019-03-26T22:08:04.635Z,40.17
2019-03-26T22:10:33.089Z,24.20
2019-03-26T22:13:01.589Z,22.53
2019-03-26T22:15:30.049Z,14.00
2019-03-26T22:17:58.469Z,37.23
2019-03-26T22:20:29.224Z,23.53
2019-03-26T22:22:57.657Z,31.70
2019-03-26T22:25:26.153Z,22.27
2019-03-26T22:27:54.602Z,35.87
2019-03-26T22:30:23.513Z,28.17
2019-03-26T22:32:51.943Z,33.77
2019-03-26T22:35:20.565Z,39.87
2019-03-26T22:37:48.999Z,32.10
2019-03-26T22:40:17.611Z,18.60
2019-03-26T22:42:46.069Z,36.40
2019-03-26T22:45:15.869Z,23.23
2019-03-26T22:47:44.309Z,23.03
2019-03-26T22:50:13.840Z,48.37
2019-03-26T22:52:42.334Z,24.87
2019-03-26T22:55:11.521Z,37.80
2019-03-26T22:57:40.125Z,26.10
2019-03-26T23:00:11.720Z,24.30
2019-03-26T23:02:40.409Z,28.27
2019-03-26T23:05:10.201Z,30.87
2019-03-26T23:07:38.758Z,21.77
2019-03-26T23:10:08.221Z,17.90
2019-03-26T23:12:36.667Z,26.53
2019-03-26T23:15:10.705Z,35.57
2019-03-26T23:17:39.134Z,18.80
2019-03-26T23:20:07.602Z,19.63
2019-03-26T23:22:36.031Z,17.37
2019-03-26T23:25:06.199Z,20.30
2019-03-26T23:27:34.621Z,24.60
2019-03-26T23:30:05.415Z,21.63
2019-03-26T23:32:33.837Z,21.93
2019-03-26T23:35:02.294Z,26.33
2019-03-26T23:37:30.722Z,35.77
2019-03-26T23:39:59.854Z,20.83
2019-03-26T23:42:28.334Z,15.77
2019-03-26T23:44:58.555Z,25.70
2019-03-26T23:47:27.030Z,15.47
2019-03-26T23:49:55.628Z,23.27
2019-03-26T23:52:24.072Z,14.80
2019-03-26T23:54:53.748Z,38.50
2019-03-26T23:57:22.282Z,20.43
2019-03-26T23:59:50.881Z,17.23
